createdAt,value
2023-05-06T00:00:25.592Z,86.3509
2023-05-06T00:01:26.583Z,86.0588
2023-05-06T00:02:27.590Z,85.9580
2023-05-06T00:03:28.958Z,86.2297
2023-05-06T00:04:29.219Z,86.3092
2023-05-06T00:05:29.371Z,86.4776
2023-05-06T00:06:29.910Z,86.3443
2023-05-06T00:07:30.720Z,86.4044
2023-05-06T00:08:31.481Z,86.0857
2023-05-06T00:09:31.863Z,86.0778
2023-05-06T00:10:32.518Z,86.1568
2023-05-06T00:11:33.122Z,86.0851
2023-05-06T00:12:33.866Z,86.1426
2023-05-06T00:13:34.571Z,86.3053
2023-05-06T00:14:35.376Z,86.3772
2023-05-06T00:15:36.267Z,86.4230
2023-05-06T00:16:37.231Z,86.5885
2023-05-06T00:17:38.488Z,86.5825
2023-05-06T00:18:39.270Z,86.5730
2023-05-06T00:19:40.126Z,86.5127
2023-05-06T00:20:40.743Z,86.4194
2023-05-06T00:21:41.130Z,86.1341
2023-05-06T00:22:41.734Z,85.9929
2023-05-06T00:23:42.541Z,85.9823
2023-05-06T00:24:43.543Z,86.1507
2023-05-06T00:25:43.759Z,86.1626
2023-05-06T00:26:44.115Z,86.2901
2023-05-06T00:27:45.115Z,86.2799
2023-05-06T00:28:45.410Z,86.1898
2023-05-06T00:29:45.935Z,85.9508
2023-05-06T00:30:46.742Z,85.7339
2023-05-06T00:31:47.386Z,85.6871
2023-05-06T00:32:47.798Z,85.3164
2023-05-06T00:33:48.444Z,85.2137
2023-05-06T00:34:49.000Z,84.9267
2023-05-06T00:35:49.677Z,84.9124
2023-05-06T00:36:50.270Z,84.9525
2023-05-06T00:37:51.198Z,84.8923
2023-05-06T00:38:51.613Z,84.9251
2023-05-06T00:39:52.370Z,84.8138
2023-05-06T00:40:53.073Z,85.0849
2023-05-06T00:41:53.780Z,85.0448
2023-05-06T00:42:54.636Z,85.0092
2023-05-06T00:43:55.063Z,85.0654
2023-05-06T00:44:55.596Z,85.1352
2023-05-06T00:45:55.606Z,85.1855
2023-05-06T00:46:56.247Z,85.6320
2023-05-06T00:47:56.961Z,85.7549
2023-05-06T00:48:57.496Z,85.6533
2023-05-06T00:49:58.040Z,85.6920
2023-05-06T00:50:58.575Z,85.7063
2023-05-06T00:51:59.039Z,85.8300
2023-05-06T00:52:59.786Z,85.7142
2023-05-06T00:54:00.470Z,85.5753
2023-05-06T00:55:01.079Z,85.1616
2023-05-06T00:56:01.762Z,85.1588
2023-05-06T00:57:02.458Z,85.3629
2023-05-06T00:58:03.441Z,85.4119
2023-05-06T00:59:03.956Z,85.5128
2023-05-06T01:00:04.669Z,85.4622
2023-05-06T01:01:05.726Z,85.4770
2023-05-06T01:02:06.675Z,85.4227
2023-05-06T01:03:07.748Z,85.4616
2023-05-06T01:04:08.398Z,85.8264
2023-05-06T01:05:09.263Z,85.7854
2023-05-06T01:06:09.850Z,85.7379
2023-05-06T01:07:10.405Z,85.8074
2023-05-06T01:08:11.178Z,85.8999
2023-05-06T01:09:12.046Z,86.2439
2023-05-06T01:10:12.739Z,86.1100
2023-05-06T01:11:15.625Z,86.2793
2023-05-06T01:12:13.989Z,86.4965
2023-05-06T01:13:15.184Z,86.5353
2023-05-06T01:14:16.073Z,86.4537
2023-05-06T01:15:16.251Z,86.5128
2023-05-06T01:16:17.350Z,86.3463
2023-05-06T01:17:18.461Z,86.4208
2023-05-06T01:18:18.709Z,86.1711
2023-05-06T01:19:19.406Z,86.1065
2023-05-06T01:20:20.244Z,86.1669
2023-05-06T01:21:20.965Z,86.3283
2023-05-06T01:22:21.835Z,86.4368
2023-05-06T01:23:22.586Z,86.1826
2023-05-06T01:24:23.476Z,86.0285
2023-05-06T01:25:23.790Z,85.7975
2023-05-06T01:26:24.618Z,85.6868
2023-05-06T01:27:25.569Z,85.6420
2023-05-06T01:28:26.496Z,85.6046
2023-05-06T01:29:27.354Z,85.7324
2023-05-06T01:30:28.502Z,85.7691
2023-05-06T01:31:29.407Z,86.0059
2023-05-06T01:32:30.480Z,86.0474
2023-05-06T01:33:31.568Z,86.2667
2023-05-06T01:34:32.508Z,86.3721
2023-05-06T01:35:32.636Z,86.5385
2023-05-06T01:36:33.360Z,86.7123
2023-05-06T01:37:34.511Z,86.2837
2023-05-06T01:38:35.238Z,86.3026
2023-05-06T01:39:36.063Z,86.3844
2023-05-06T01:40:36.973Z,86.3880
2023-05-06T01:41:37.616Z,86.4076
2023-05-06T01:42:38.564Z,86.4205
2023-05-06T01:43:39.236Z,86.5579
2023-05-06T01:44:40.224Z,86.8151
2023-05-06T01:45:41.110Z,86.8594
2023-05-06T01:46:42.215Z,87.0732
2023-05-06T01:47:43.469Z,87.2982
2023-05-06T01:48:44.335Z,87.2908
2023-05-06T01:49:45.271Z,87.2718
2023-05-06T01:50:46.287Z,87.2867
2023-05-06T01:51:47.385Z,87.5603
2023-05-06T01:52:48.280Z,87.8105
2023-05-06T01:53:49.059Z,87.5353
2023-05-06T01:54:50.000Z,87.5310
2023-05-06T01:55:50.937Z,87.6307
2023-05-06T01:56:51.763Z,87.6231
2023-05-06T01:57:52.687Z,87.5726
2023-05-06T01:58:53.383Z,87.6404
2023-05-06T01:59:54.248Z,87.4798
2023-05-06T02:00:55.128Z,87.3610
2023-05-06T02:01:56.062Z,87.2788
2023-05-06T02:02:56.979Z,87.2155
2023-05-06T02:03:57.567Z,87.5602
2023-05-06T02:04:58.783Z,87.6936
2023-05-06T02:05:59.482Z,87.7479
2023-05-06T02:07:00.312Z,87.7066
2023-05-06T02:08:01.240Z,87.7135
2023-05-06T02:09:02.051Z,87.5095
2023-05-06T02:10:02.971Z,87.4493
2023-05-06T02:11:03.629Z,87.4626
2023-05-06T02:12:04.455Z,87.4695
2023-05-06T02:13:05.419Z,87.4851
2023-05-06T02:14:06.288Z,87.4941
2023-05-06T02:15:07.322Z,87.6190
2023-05-06T02:16:08.423Z,87.6429
2023-05-06T02:17:09.677Z,87.8319
2023-05-06T02:18:10.807Z,87.9885
2023-05-06T02:19:11.513Z,87.9778
2023-05-06T02:20:12.407Z,87.9305
2023-05-06T02:21:13.119Z,87.9144
2023-05-06T02:22:13.953Z,88.0817
2023-05-06T02:23:14.624Z,88.2353
2023-05-06T02:24:15.624Z,88.0906
2023-05-06T02:25:16.508Z,88.0172
2023-05-06T02:26:17.322Z,87.9315
2023-05-06T02:27:18.317Z,87.7975
2023-05-06T02:28:19.258Z,88.1118
2023-05-06T02:29:20.177Z,88.1103
2023-05-06T02:30:21.007Z,87.9522
2023-05-06T02:31:21.890Z,88.1142
2023-05-06T02:32:21.990Z,88.0878
2023-05-06T02:33:22.750Z,88.1240
2023-05-06T02:34:23.437Z,88.1376
2023-05-06T02:35:24.045Z,88.1607
2023-05-06T02:36:24.836Z,88.0725
2023-05-06T02:37:25.291Z,88.0803
2023-05-06T02:38:26.017Z,88.1278
2023-05-06T02:39:26.511Z,88.1381
2023-05-06T02:40:27.222Z,88.0645
2023-05-06T02:41:28.130Z,88.1426
2023-05-06T02:42:29.077Z,87.8970
2023-05-06T02:43:30.275Z,87.8008
2023-05-06T02:44:30.384Z,88.0411
2023-05-06T02:45:31.350Z,88.0582
2023-05-06T02:46:32.100Z,87.8902
2023-05-06T02:47:33.041Z,87.9124
2023-05-06T02:48:33.955Z,88.0807
2023-05-06T02:49:34.878Z,88.1489
2023-05-06T02:50:35.809Z,88.0573
2023-05-06T02:51:36.570Z,88.1519
2023-05-06T02:52:37.494Z,88.1359
2023-05-06T02:53:38.224Z,88.1633
2023-05-06T02:54:39.105Z,88.2201
2023-05-06T02:55:40.048Z,88.1963
2023-05-06T02:56:40.764Z,88.0956
2023-05-06T02:57:41.716Z,88.0647
2023-05-06T02:58:42.437Z,88.1467
2023-05-06T02:59:43.395Z,88.0766
2023-05-06T03:00:44.387Z,88.2112
2023-05-06T03:01:45.381Z,88.1477
2023-05-06T03:02:46.322Z,88.2048
2023-05-06T03:03:47.160Z,88.2005
2023-05-06T03:04:48.257Z,88.3283
2023-05-06T03:05:49.364Z,88.1796
2023-05-06T03:06:50.110Z,88.2840
2023-05-06T03:07:51.031Z,88.2308
2023-05-06T03:08:51.802Z,88.2254
2023-05-06T03:09:52.685Z,88.1646
2023-05-06T03:10:53.473Z,88.1548
2023-05-06T03:11:54.436Z,88.2676
2023-05-06T03:12:55.363Z,88.3806
2023-05-06T03:13:56.384Z,88.4548
2023-05-06T03:14:57.459Z,88.5781
2023-05-06T03:15:58.261Z,88.6491
2023-05-06T03:16:59.368Z,88.7398
2023-05-06T03:17:59.705Z,88.8070
2023-05-06T03:19:00.675Z,88.7656
2023-05-06T03:20:01.729Z,88.8174
2023-05-06T03:21:02.527Z,88.7116
2023-05-06T03:22:03.806Z,88.8629
2023-05-06T03:23:04.674Z,88.9091
2023-05-06T03:24:05.577Z,88.8756
2023-05-06T03:25:06.512Z,88.7815
2023-05-06T03:26:06.598Z,88.7166
2023-05-06T03:27:07.640Z,88.4910
2023-05-06T03:28:08.607Z,88.3947
2023-05-06T03:29:09.428Z,88.3632
2023-05-06T03:30:10.517Z,88.3915
2023-05-06T03:31:11.382Z,88.4594
2023-05-06T03:32:11.536Z,88.4284
2023-05-06T03:33:12.871Z,88.5505
2023-05-06T03:34:13.741Z,88.7373
2023-05-06T03:35:14.475Z,88.8869
2023-05-06T03:36:15.270Z,89.0696
2023-05-06T03:37:16.303Z,89.2161
2023-05-06T03:38:17.196Z,89.4462
2023-05-06T03:39:18.294Z,89.5036
2023-05-06T03:40:19.264Z,89.5920
2023-05-06T03:41:19.993Z,89.8391
2023-05-06T03:42:20.724Z,90.0456
2023-05-06T03:43:21.470Z,90.3323
2023-05-06T03:44:22.461Z,90.4036
2023-05-06T03:45:23.383Z,90.4941
2023-05-06T03:46:24.390Z,90.5939
2023-05-06T03:47:25.657Z,90.6989
2023-05-06T03:48:26.759Z,90.7616
2023-05-06T03:49:27.899Z,90.7558
2023-05-06T03:50:28.978Z,90.8417
2023-05-06T03:51:29.987Z,90.8998
2023-05-06T03:52:31.021Z,90.9013
2023-05-06T03:53:31.906Z,90.7611
2023-05-06T03:54:32.883Z,90.6026
2023-05-06T03:55:33.189Z,90.3574
2023-05-06T03:56:34.016Z,90.4156
2023-05-06T03:57:35.296Z,90.5807
2023-05-06T03:58:36.338Z,90.7086
2023-05-06T03:59:37.239Z,90.8839
2023-05-06T04:00:38.355Z,90.9425
2023-05-06T04:01:39.299Z,90.9603
2023-05-06T04:02:39.653Z,90.8752
2023-05-06T04:03:40.015Z,90.8540
2023-05-06T04:04:39.976Z,90.5422
2023-05-06T04:05:41.009Z,90.5043
2023-05-06T04:06:41.947Z,90.4465
2023-05-06T04:07:42.875Z,90.4730
2023-05-06T04:08:43.744Z,90.5580
2023-05-06T04:09:44.738Z,90.5375
2023-05-06T04:10:45.857Z,90.5738
2023-05-06T04:11:45.845Z,90.7327
2023-05-06T04:12:46.881Z,90.6902
2023-05-06T04:13:46.911Z,90.6400
2023-05-06T04:14:47.922Z,90.6144
2023-05-06T04:15:48.723Z,90.6180
2023-05-06T04:16:49.780Z,90.5987
2023-05-06T04:17:50.636Z,90.5907
2023-05-06T04:18:51.687Z,90.6092
2023-05-06T04:19:52.578Z,90.6800
2023-05-06T04:20:53.444Z,90.6988
2023-05-06T04:21:54.565Z,90.7000
2023-05-06T04:22:55.389Z,90.7699
2023-05-06T04:23:56.344Z,90.7526
2023-05-06T04:24:57.416Z,90.7539
2023-05-06T04:25:58.244Z,90.6245
2023-05-06T04:26:59.190Z,90.5969
2023-05-06T04:28:00.155Z,90.4599
2023-05-06T04:29:01.111Z,90.5089
2023-05-06T04:30:02.404Z,90.4269
2023-05-06T04:31:03.187Z,90.3887
2023-05-06T04:32:04.404Z,90.3557
2023-05-06T04:33:05.525Z,90.1729
2023-05-06T04:34:05.885Z,89.9439
2023-05-06T04:35:07.117Z,89.7585
2023-05-06T04:36:08.070Z,89.6723
2023-05-06T04:37:09.173Z,89.5694
2023-05-06T04:38:09.948Z,89.6131
2023-05-06T04:39:11.027Z,89.4926
2023-05-06T04:40:12.090Z,89.4064
2023-05-06T04:41:12.956Z,89.4731
2023-05-06T04:42:14.147Z,89.5189
2023-05-06T04:43:15.082Z,89.7340
2023-05-06T04:44:16.169Z,89.8116
2023-05-06T04:45:17.242Z,89.8093
2023-05-06T04:46:18.395Z,89.7885
2023-05-06T04:47:19.513Z,89.9938
2023-05-06T04:48:20.700Z,89.9242
2023-05-06T04:49:21.829Z,89.7179
2023-05-06T04:50:22.947Z,89.9610
2023-05-06T04:51:24.006Z,89.7462
2023-05-06T04:52:24.108Z,89.6046
2023-05-06T04:53:25.575Z,89.6116
2023-05-06T04:54:26.569Z,89.9594
2023-05-06T04:55:26.986Z,89.9840
2023-05-06T04:56:27.952Z,90.1939
2023-05-06T04:57:29.067Z,90.1319
2023-05-06T04:58:30.161Z,90.2202
2023-05-06T04:59:31.137Z,90.1509
2023-05-06T05:00:32.318Z,90.1181
2023-05-06T05:01:33.561Z,90.1831
2023-05-06T05:02:33.934Z,90.0799
2023-05-06T05:03:34.686Z,90.1231
2023-05-06T05:04:34.622Z,90.2358
2023-05-06T05:05:34.684Z,90.2092
2023-05-06T05:06:35.584Z,90.0714
2023-05-06T05:07:36.743Z,89.8257
2023-05-06T05:08:37.719Z,89.8607
2023-05-06T05:09:38.984Z,89.8732
2023-05-06T05:11:39.704Z,89.7381
2023-05-06T05:12:41.044Z,89.6861
2023-05-06T05:13:40.998Z,89.6554
2023-05-06T05:14:42.148Z,89.6208
2023-05-06T05:15:42.315Z,89.5905
2023-05-06T05:16:43.636Z,89.7996
2023-05-06T05:18:44.427Z,90.0289
2023-05-06T05:19:44.625Z,90.0552
2023-05-06T05:20:45.665Z,90.4248
2023-05-06T05:21:46.825Z,90.6302
2023-05-06T05:22:47.778Z,90.7057
2023-05-06T05:23:49.014Z,90.3499
2023-05-06T05:24:50.124Z,89.8645
2023-05-06T05:25:50.813Z,89.7178
2023-05-06T05:26:51.984Z,89.4516
2023-05-06T05:27:52.926Z,89.1974
2023-05-06T05:28:54.000Z,89.0437
2023-05-06T05:29:55.167Z,88.7584
2023-05-06T05:30:56.379Z,88.6267
2023-05-06T05:31:57.518Z,89.0254
2023-05-06T05:32:59.008Z,89.3076
2023-05-06T05:33:59.021Z,89.3243
2023-05-06T05:35:00.303Z,89.3637
2023-05-06T05:36:01.300Z,89.0942
2023-05-06T05:37:02.492Z,88.5195
2023-05-06T05:38:03.532Z,88.5836
2023-05-06T05:39:04.852Z,88.5499
2023-05-06T05:40:06.021Z,88.5291
2023-05-06T05:41:07.067Z,88.4315
2023-05-06T05:42:08.376Z,88.5950
2023-05-06T05:43:09.597Z,88.4329
2023-05-06T05:44:10.764Z,88.1387
2023-05-06T05:45:11.214Z,88.0401
2023-05-06T05:46:12.280Z,88.1428
2023-05-06T05:47:12.383Z,88.1712
2023-05-06T05:48:13.671Z,88.1939
2023-05-06T05:49:14.870Z,88.1842
2023-05-06T05:50:16.155Z,88.2061
2023-05-06T05:52:16.938Z,87.8950
2023-05-06T05:53:18.166Z,87.7886
2023-05-06T05:54:18.145Z,87.6597
2023-05-06T05:55:19.454Z,87.7426
2023-05-06T05:56:20.038Z,87.7553
2023-05-06T05:57:21.097Z,87.4617
2023-05-06T05:58:22.605Z,87.3989
2023-05-06T06:00:23.566Z,87.5154
2023-05-06T06:01:23.504Z,88.0811
2023-05-06T06:02:24.556Z,88.2195
2023-05-06T06:03:25.652Z,88.1388
2023-05-06T06:04:26.710Z,88.3633
2023-05-06T06:05:27.351Z,88.6606
2023-05-06T06:06:28.661Z,88.8698
2023-05-06T06:07:29.690Z,88.7363
2023-05-06T06:08:30.885Z,88.4922
2023-05-06T06:09:32.103Z,88.2147
2023-05-06T06:10:33.154Z,88.1557
2023-05-06T06:11:34.369Z,87.9942
2023-05-06T06:12:35.411Z,87.3165
2023-05-06T06:13:35.879Z,87.1109
2023-05-06T06:14:36.993Z,86.8702
2023-05-06T06:15:38.277Z,86.8371
2023-05-06T06:16:38.762Z,86.8403
2023-05-06T06:17:38.660Z,86.5340
2023-05-06T06:18:38.850Z,86.5573
2023-05-06T06:19:39.985Z,86.1405
2023-05-06T06:20:41.252Z,86.2596
2023-05-06T06:21:42.356Z,86.3744
2023-05-06T06:22:43.426Z,86.7968
2023-05-06T06:23:44.467Z,87.0471
2023-05-06T06:24:45.595Z,87.0491
2023-05-06T06:25:45.925Z,87.1898
2023-05-06T06:26:46.941Z,86.9626
2023-05-06T06:27:48.202Z,86.8361
2023-05-06T06:28:49.523Z,86.6749
2023-05-06T06:29:50.520Z,86.6672
2023-05-06T06:30:51.845Z,86.7358
2023-05-06T06:31:51.897Z,86.9117
2023-05-06T06:32:51.932Z,87.0367
2023-05-06T06:33:53.136Z,86.8371
2023-05-06T06:34:54.442Z,86.8217
2023-05-06T06:35:54.632Z,87.0429
2023-05-06T06:36:55.853Z,87.0908
2023-05-06T06:37:57.116Z,86.7176
2023-05-06T06:38:58.360Z,86.8773
2023-05-06T06:39:58.172Z,87.1083
2023-05-06T06:40:59.418Z,87.0557
2023-05-06T06:42:00.616Z,86.8207
2023-05-06T06:43:01.644Z,86.6404
2023-05-06T06:44:02.793Z,86.3676
2023-05-06T06:45:04.075Z,86.2529
2023-05-06T06:46:05.239Z,86.3109
2023-05-06T06:47:06.551Z,86.0256
2023-05-06T06:48:06.677Z,85.9952
2023-05-06T06:49:06.708Z,86.2741
2023-05-06T06:50:07.737Z,86.5106
2023-05-06T06:52:08.582Z,86.1424
2023-05-06T06:53:09.908Z,85.2582
2023-05-06T06:54:11.102Z,85.1082
2023-05-06T06:55:11.696Z,85.4416
2023-05-06T06:56:11.624Z,85.5990
2023-05-06T06:57:11.611Z,84.5751
2023-05-06T06:58:12.666Z,84.6091
2023-05-06T06:59:14.040Z,85.1983
2023-05-06T07:00:15.052Z,85.1524
2023-05-06T07:03:17.628Z,84.4186
2023-05-06T07:04:18.933Z,84.2583
2023-05-06T07:05:19.941Z,84.3521
2023-05-06T07:06:20.790Z,84.9630
2023-05-06T07:07:21.131Z,85.2762
2023-05-06T07:08:21.659Z,84.5829
2023-05-06T07:09:22.401Z,84.2353
2023-05-06T07:10:22.668Z,84.3661
2023-05-06T07:11:23.041Z,84.3330
2023-05-06T07:12:23.649Z,84.2539
2023-05-06T07:13:24.469Z,84.4781
2023-05-06T07:14:25.224Z,84.5421
2023-05-06T07:16:25.796Z,84.7092
2023-05-06T07:17:26.150Z,84.3265
2023-05-06T07:18:26.106Z,84.1423
2023-05-06T07:19:26.279Z,84.1324
2023-05-06T07:20:27.329Z,84.0639
2023-05-06T07:21:28.459Z,83.6169
2023-05-06T07:22:28.616Z,83.2538
2023-05-06T07:23:31.897Z,82.7517
2023-05-06T07:24:30.885Z,82.8967
2023-05-06T07:25:32.059Z,82.3930
2023-05-06T07:26:33.414Z,82.2540
2023-05-06T07:27:34.711Z,82.7353
2023-05-06T07:28:35.941Z,82.4284
2023-05-06T07:29:36.105Z,82.0345
2023-05-06T07:30:37.438Z,82.2456
2023-05-06T07:31:37.768Z,82.3941
2023-05-06T07:32:38.927Z,82.3799
2023-05-06T07:33:40.252Z,82.4284
2023-05-06T07:34:41.359Z,82.2458
2023-05-06T07:35:41.525Z,81.8711
2023-05-06T07:36:42.764Z,81.9749
2023-05-06T07:37:43.763Z,81.8810
2023-05-06T07:38:44.800Z,81.6861
2023-05-06T07:39:45.660Z,81.4748
2023-05-06T07:40:46.822Z,81.9010
2023-05-06T07:41:47.349Z,82.1588
2023-05-06T07:42:48.253Z,82.1060
2023-05-06T07:43:48.416Z,81.7088
2023-05-06T07:44:49.208Z,81.8253
2023-05-06T07:45:50.200Z,81.6470
2023-05-06T07:46:51.244Z,81.5810
2023-05-06T07:47:51.077Z,81.5293
2023-05-06T07:48:51.864Z,81.2502
2023-05-06T07:49:52.597Z,81.0808
2023-05-06T07:50:53.018Z,80.7716
2023-05-06T07:51:54.902Z,81.1920
2023-05-06T07:52:54.995Z,81.0620
2023-05-06T07:53:55.624Z,80.9991
2023-05-06T07:54:56.606Z,80.3815
2023-05-06T07:55:56.779Z,80.1200
2023-05-06T07:56:57.226Z,80.0752
2023-05-06T07:57:58.506Z,80.1074
2023-05-06T07:58:59.778Z,81.1936
2023-05-06T07:59:59.982Z,80.6658
2023-05-06T08:01:01.282Z,80.3296
2023-05-06T08:02:02.580Z,80.1468
2023-05-06T08:03:04.060Z,79.9268
2023-05-06T08:04:04.152Z,79.8892
2023-05-06T08:05:04.913Z,79.5885
2023-05-06T08:07:12.970Z,79.3826
2023-05-06T08:08:14.214Z,78.7457
2023-05-06T08:09:22.241Z,78.7904
2023-05-06T08:10:15.798Z,78.7787
2023-05-06T08:11:18.823Z,78.8468
2023-05-06T08:12:17.599Z,78.5151
2023-05-06T08:13:18.900Z,78.2401
2023-05-06T08:14:20.137Z,77.4098
2023-05-06T08:15:20.129Z,76.4784
2023-05-06T08:16:22.576Z,75.9445
2023-05-06T08:17:21.800Z,76.1583
2023-05-06T08:18:23.496Z,76.3189
2023-05-06T08:19:23.469Z,76.1694
2023-05-06T08:20:23.279Z,76.2464
2023-05-06T08:21:24.153Z,75.2688
2023-05-06T08:22:25.360Z,74.6122
2023-05-06T08:23:26.412Z,73.7814
2023-05-06T08:24:27.292Z,73.5391
2023-05-06T08:25:27.416Z,73.4642
2023-05-06T08:26:28.509Z,73.0635
2023-05-06T08:27:29.298Z,73.1694
2023-05-06T08:28:30.194Z,71.8052
2023-05-06T08:29:31.008Z,71.5879
2023-05-06T08:30:32.138Z,71.5603
2023-05-06T08:31:33.191Z,71.7308
2023-05-06T08:32:33.300Z,71.5936
2023-05-06T08:33:33.512Z,71.7772
2023-05-06T08:34:33.759Z,71.5072
2023-05-06T08:35:34.010Z,71.4605
2023-05-06T08:36:34.831Z,71.5949
2023-05-06T08:37:35.906Z,71.9459
2023-05-06T08:38:36.809Z,73.1272
2023-05-06T08:39:37.822Z,73.1021
2023-05-06T08:40:38.685Z,72.9848
2023-05-06T08:41:39.972Z,72.8311
2023-05-06T08:42:41.122Z,72.6668
2023-05-06T08:43:42.183Z,72.4840
2023-05-06T08:44:43.213Z,72.8711
2023-05-06T08:45:44.163Z,72.6055
2023-05-06T08:46:44.451Z,72.4731
2023-05-06T08:47:45.482Z,73.0293
2023-05-06T08:48:46.320Z,72.7096
2023-05-06T08:49:47.441Z,72.5381
2023-05-06T08:50:48.468Z,72.5639
2023-05-06T08:51:49.712Z,72.7856
2023-05-06T08:52:51.036Z,72.0993
2023-05-06T08:53:52.188Z,71.3045
2023-05-06T08:54:52.295Z,70.8273
2023-05-06T08:55:52.485Z,70.1699
2023-05-06T08:56:53.772Z,69.9391
2023-05-06T08:57:54.276Z,69.2565
2023-05-06T08:58:55.369Z,67.8481
2023-05-06T08:59:56.647Z,67.2293
2023-05-06T09:00:57.487Z,66.3784
2023-05-06T09:01:57.719Z,66.1631
2023-05-06T09:02:58.853Z,68.0103
2023-05-06T09:03:59.617Z,68.9144
2023-05-06T09:05:00.847Z,69.5203
2023-05-06T09:06:00.854Z,69.4894
2023-05-06T09:07:01.990Z,68.6190
2023-05-06T09:08:03.266Z,67.9852
2023-05-06T09:09:04.508Z,67.9926
2023-05-06T09:10:05.347Z,67.8800
2023-05-06T09:11:06.380Z,68.3330
2023-05-06T09:12:07.610Z,67.9018
2023-05-06T09:13:08.684Z,67.9823
2023-05-06T09:14:09.840Z,67.9715
2023-05-06T09:15:10.741Z,66.9890
2023-05-06T09:16:11.688Z,67.2225
2023-05-06T09:17:12.849Z,66.9597
2023-05-06T09:18:13.066Z,66.1797
2023-05-06T09:19:14.017Z,66.4993
2023-05-06T09:20:14.817Z,65.7430
2023-05-06T09:21:15.456Z,65.8107
2023-05-06T09:22:15.609Z,66.7961
2023-05-06T09:23:16.603Z,66.9956
2023-05-06T09:24:17.647Z,66.6374
2023-05-06T09:25:18.603Z,68.1928
2023-05-06T09:26:19.575Z,68.6491
2023-05-06T09:27:20.108Z,69.2853
2023-05-06T09:28:21.395Z,71.2030
2023-05-06T09:29:22.406Z,70.3873
2023-05-06T09:30:23.625Z,69.7886
2023-05-06T09:31:24.368Z,69.5875
2023-05-06T09:32:25.377Z,70.7330
2023-05-06T09:33:25.905Z,70.7715
2023-05-06T09:34:26.986Z,71.0597
2023-05-06T09:35:27.037Z,70.4570
2023-05-06T09:36:28.381Z,70.5427
2023-05-06T09:37:29.399Z,71.3618
2023-05-06T09:38:30.358Z,70.8255
2023-05-06T09:39:31.351Z,71.0735
2023-05-06T09:40:32.268Z,70.6394
2023-05-06T09:41:33.265Z,71.0428
2023-05-06T09:42:34.190Z,70.7836
2023-05-06T09:43:35.206Z,70.4980
2023-05-06T09:44:36.538Z,69.9472
2023-05-06T09:45:37.336Z,70.0713
2023-05-06T09:46:38.751Z,69.2966
2023-05-06T09:47:39.079Z,69.0756
2023-05-06T09:48:39.096Z,69.1103
2023-05-06T09:49:40.064Z,69.2093
2023-05-06T09:50:40.975Z,68.9238
2023-05-06T09:51:41.938Z,68.5729
2023-05-06T09:52:43.052Z,68.1033
2023-05-06T09:53:44.107Z,68.7206
2023-05-06T09:54:45.021Z,67.7180
2023-05-06T09:55:45.131Z,67.2554
2023-05-06T09:56:46.188Z,66.6359
2023-05-06T09:57:46.468Z,65.9291
2023-05-06T09:58:47.529Z,63.2441
2023-05-06T09:59:48.656Z,62.5090
2023-05-06T10:00:48.836Z,63.2089
2023-05-06T10:01:49.247Z,63.0144
2023-05-06T10:02:49.448Z,62.8665
2023-05-06T10:03:49.617Z,61.6214
2023-05-06T10:04:50.229Z,62.2740
2023-05-06T10:05:50.870Z,63.1386
2023-05-06T10:06:51.821Z,64.6277
2023-05-06T10:07:52.869Z,64.9353
2023-05-06T10:08:53.884Z,64.0459
2023-05-06T10:09:54.981Z,63.7408
2023-05-06T10:10:56.014Z,64.3940
2023-05-06T10:11:57.044Z,65.3110
2023-05-06T10:12:57.181Z,66.1039
2023-05-06T10:13:58.294Z,66.4246
2023-05-06T10:14:58.440Z,65.6984
2023-05-06T10:15:59.605Z,65.2558
2023-05-06T10:16:59.939Z,64.0532
2023-05-06T10:18:00.253Z,64.1991
2023-05-06T10:19:01.221Z,65.4094
2023-05-06T10:20:01.881Z,64.0999
2023-05-06T10:21:02.818Z,63.1048
2023-05-06T10:22:05.587Z,63.6619
2023-05-06T10:23:04.580Z,63.9173
2023-05-06T10:24:05.403Z,63.6390
2023-05-06T10:25:06.567Z,64.0249
2023-05-06T10:26:07.719Z,63.5290
2023-05-06T10:27:08.766Z,63.6514
2023-05-06T10:28:23.170Z,64.0621
2023-05-06T10:29:13.412Z,63.2112
2023-05-06T10:30:14.560Z,62.2336
2023-05-06T10:31:15.691Z,62.8304
2023-05-06T10:32:15.608Z,61.6565
2023-05-06T10:33:16.948Z,61.2627
2023-05-06T10:34:18.025Z,61.4737
2023-05-06T10:36:18.865Z,59.8131
2023-05-06T10:37:19.935Z,59.8643
2023-05-06T10:38:20.875Z,60.4798
2023-05-06T10:39:21.931Z,60.2592
2023-05-06T10:40:23.098Z,60.3696
2023-05-06T10:41:24.065Z,59.7356
2023-05-06T10:42:25.453Z,58.6448
2023-05-06T10:43:26.495Z,57.7899
2023-05-06T10:44:27.619Z,56.4206
2023-05-06T10:45:28.769Z,56.7506
2023-05-06T10:46:29.801Z,56.9737
2023-05-06T10:47:30.900Z,57.2876
2023-05-06T10:48:32.009Z,57.3398
2023-05-06T10:49:33.340Z,56.5306
2023-05-06T10:50:34.482Z,56.4765
2023-05-06T10:51:35.397Z,56.3288
2023-05-06T10:52:36.652Z,57.0641
2023-05-06T10:53:37.546Z,57.2361
2023-05-06T10:56:39.279Z,54.2158
2023-05-06T10:57:40.292Z,55.1037
2023-05-06T10:58:41.474Z,55.1416
2023-05-06T10:59:42.599Z,53.1632
2023-05-06T11:00:43.432Z,52.6911
2023-05-06T11:01:43.711Z,53.7930
2023-05-06T11:02:49.398Z,53.7888
2023-05-06T11:03:49.983Z,53.6697
2023-05-06T11:04:51.004Z,54.3841
2023-05-06T11:05:52.139Z,53.7526
2023-05-06T11:06:53.195Z,53.1750
2023-05-06T11:07:54.322Z,51.5261
2023-05-06T11:08:55.369Z,50.7402
2023-05-06T11:09:56.389Z,51.1742
2023-05-06T11:10:57.404Z,51.2952
2023-05-06T11:11:58.333Z,51.2291
2023-05-06T11:12:58.557Z,51.0728
2023-05-06T11:13:59.728Z,51.0546
2023-05-06T11:15:00.906Z,51.3261
2023-05-06T11:16:02.105Z,52.2318
2023-05-06T11:17:03.630Z,52.3966
2023-05-06T11:18:04.755Z,52.0934
2023-05-06T11:19:04.856Z,51.5909
2023-05-06T11:21:05.230Z,51.4930
2023-05-06T11:22:06.246Z,52.6159
2023-05-06T11:23:06.383Z,53.6455
2023-05-06T11:24:07.293Z,53.0307
2023-05-06T11:25:08.298Z,51.3373
2023-05-06T11:26:09.329Z,50.3477
2023-05-06T11:27:10.671Z,52.3984
2023-05-06T11:28:10.900Z,52.3794
2023-05-06T11:29:11.508Z,52.6892
2023-05-06T11:30:12.785Z,53.0726
2023-05-06T11:31:12.661Z,52.9961
2023-05-06T11:32:12.865Z,54.4419
2023-05-06T11:33:14.031Z,54.0311
2023-05-06T11:34:15.291Z,54.4098
2023-05-06T11:35:16.215Z,56.5354
2023-05-06T11:36:17.390Z,56.4089
2023-05-06T11:37:18.519Z,55.8440
2023-05-06T11:38:18.584Z,54.3333
2023-05-06T11:39:19.633Z,56.0439
2023-05-06T11:40:19.875Z,55.8021
2023-05-06T11:41:20.852Z,54.7668
2023-05-06T11:42:21.769Z,55.2647
2023-05-06T11:43:22.830Z,54.1852
2023-05-06T11:44:23.891Z,54.1171
2023-05-06T11:46:24.595Z,53.6021
2023-05-06T11:47:24.736Z,52.6907
2023-05-06T11:48:24.750Z,53.5521
2023-05-06T11:49:26.063Z,52.7288
2023-05-06T11:50:26.245Z,51.8103
2023-05-06T11:51:27.415Z,52.3348
2023-05-06T11:52:27.503Z,52.9862
2023-05-06T11:53:27.840Z,52.7850
2023-05-06T11:55:28.991Z,55.2166
2023-05-06T11:56:29.475Z,55.4902
2023-05-06T11:57:30.635Z,56.5200
2023-05-06T11:58:30.773Z,54.9517
2023-05-06T11:59:31.432Z,53.2768
2023-05-06T12:00:31.715Z,53.1688
2023-05-06T12:01:31.992Z,53.4302
2023-05-06T12:02:32.763Z,52.9019
2023-05-06T12:03:34.738Z,52.5542
2023-05-06T12:04:34.952Z,52.4324
2023-05-06T12:05:36.414Z,52.6683
2023-05-06T12:07:36.017Z,50.5759
2023-05-06T12:08:36.036Z,48.3998
2023-05-06T12:09:36.117Z,48.9809
2023-05-06T12:10:37.137Z,49.8765
2023-05-06T12:11:37.218Z,47.0059
2023-05-06T12:12:37.963Z,46.0893
2023-05-06T12:13:38.953Z,46.1919
2023-05-06T12:14:39.245Z,43.1917
2023-05-06T12:15:39.832Z,42.3560
2023-05-06T12:16:40.114Z,43.6216
2023-05-06T12:18:44.137Z,44.6064
2023-05-06T12:19:45.399Z,42.8400
2023-05-06T12:20:45.851Z,43.4304
2023-05-06T12:21:45.909Z,43.1384
2023-05-06T12:22:46.321Z,42.5802
2023-05-06T12:23:48.535Z,42.0634
2023-05-06T12:25:36.641Z,42.8351
2023-05-06T12:26:37.770Z,43.9854
2023-05-06T12:27:38.135Z,44.9700
2023-05-06T12:28:38.420Z,43.9879
2023-05-06T12:29:39.392Z,44.2397
2023-05-06T12:30:40.721Z,44.9168
2023-05-06T12:31:41.998Z,43.5712
2023-05-06T12:32:42.096Z,44.5325
2023-05-06T12:33:43.429Z,46.0791